sensor_id;sensor_type;location;lat;lon;timestamp;P1;durP1;ratioP1;P2;durP2;ratioP2
4933;SDS011;2482;49.154;8.254;2022-08-07T00:02:11;3.47;;;0.97;;
4933;SDS011;2482;49.154;8.254;2022-08-07T00:05:00;2.00;;;1.10;;
4933;SDS011;2482;49.154;8.254;2022-08-07T00:07:30;2.00;;;0.83;;
4933;SDS011;2482;49.154;8.254;2022-08-07T00:10:06;2.03;;;0.87;;
4933;SDS011;2482;49.154;8.254;2022-08-07T00:12:52;1.63;;;0.83;;
4933;SDS011;2482;49.154;8.254;2022-08-07T00:15:26;3.60;;;1.10;;
4933;SDS011;2482;49.154;8.254;2022-08-07T00:18:15;3.30;;;1.00;;
4933;SDS011;2482;49.154;8.254;2022-08-07T00:20:49;1.20;;;0.90;;
4933;SDS011;2482;49.154;8.254;2022-08-07T00:23:18;1.77;;;1.00;;
4933;SDS011;2482;49.154;8.254;2022-08-07T00:25:46;2.93;;;1.00;;
4933;SDS011;2482;49.154;8.254;2022-08-07T00:28:26;1.37;;;1.03;;
4933;SDS011;2482;49.154;8.254;2022-08-07T00:31:01;1.20;;;1.10;;
4933;SDS011;2482;49.154;8.254;2022-08-07T00:33:39;2.13;;;1.00;;
4933;SDS011;2482;49.154;8.254;2022-08-07T00:36:08;1.63;;;1.10;;
4933;SDS011;2482;49.154;8.254;2022-08-07T00:38:38;1.43;;;0.83;;
4933;SDS011;2482;49.154;8.254;2022-08-07T00:41:06;2.03;;;1.10;;
4933;SDS011;2482;49.154;8.254;2022-08-07T00:43:39;2.27;;;1.40;;
4933;SDS011;2482;49.154;8.254;2022-08-07T00:46:27;1.90;;;1.00;;
4933;SDS011;2482;49.154;8.254;2022-08-07T00:48:58;3.83;;;1.13;;
4933;SDS011;2482;49.154;8.254;2022-08-07T00:51:29;5.13;;;1.10;;
4933;SDS011;2482;49.154;8.254;2022-08-07T00:54:16;2.00;;;0.90;;
4933;SDS011;2482;49.154;8.254;2022-08-07T00:56:45;1.03;;;0.83;;
4933;SDS011;2482;49.154;8.254;2022-08-07T00:59:15;1.53;;;1.00;;
4933;SDS011;2482;49.154;8.254;2022-08-07T01:02:01;1.43;;;0.90;;
4933;SDS011;2482;49.154;8.254;2022-08-07T01:04:39;2.20;;;1.23;;
4933;SDS011;2482;49.154;8.254;2022-08-07T01:07:09;1.23;;;1.13;;
4933;SDS011;2482;49.154;8.254;2022-08-07T01:09:38;3.50;;;1.20;;
4933;SDS011;2482;49.154;8.254;2022-08-07T01:12:26;2.90;;;1.07;;
4933;SDS011;2482;49.154;8.254;2022-08-07T01:14:56;1.83;;;0.90;;
4933;SDS011;2482;49.154;8.254;2022-08-07T01:17:29;1.10;;;0.83;;
4933;SDS011;2482;49.154;8.254;2022-08-07T01:19:57;1.40;;;0.90;;
4933;SDS011;2482;49.154;8.254;2022-08-07T01:22:34;2.53;;;1.00;;
4933;SDS011;2482;49.154;8.254;2022-08-07T01:25:12;2.47;;;1.23;;
4933;SDS011;2482;49.154;8.254;2022-08-07T01:27:59;2.60;;;1.27;;
4933;SDS011;2482;49.154;8.254;2022-08-07T01:30:26;1.67;;;0.80;;
4933;SDS011;2482;49.154;8.254;2022-08-07T01:32:55;4.17;;;1.30;;
4933;SDS011;2482;49.154;8.254;2022-08-07T01:35:23;2.63;;;1.00;;
4933;SDS011;2482;49.154;8.254;2022-08-07T01:38:11;2.73;;;1.00;;
4933;SDS011;2482;49.154;8.254;2022-08-07T01:40:50;2.07;;;1.17;;
4933;SDS011;2482;49.154;8.254;2022-08-07T01:43:21;2.80;;;1.10;;
4933;SDS011;2482;49.154;8.254;2022-08-07T01:45:51;2.83;;;1.20;;
4933;SDS011;2482;49.154;8.254;2022-08-07T01:48:21;3.07;;;1.00;;
4933;SDS011;2482;49.154;8.254;2022-08-07T01:50:56;5.10;;;1.00;;
4933;SDS011;2482;49.154;8.254;2022-08-07T01:53:56;2.47;;;1.30;;
4933;SDS011;2482;49.154;8.254;2022-08-07T01:56:57;2.27;;;1.00;;
4933;SDS011;2482;49.154;8.254;2022-08-07T01:59:46;5.43;;;1.37;;
4933;SDS011;2482;49.154;8.254;2022-08-07T02:02:23;1.40;;;0.80;;
4933;SDS011;2482;49.154;8.254;2022-08-07T02:08:26;1.17;;;0.80;;
4933;SDS011;2482;49.154;8.254;2022-08-07T02:10:55;2.57;;;0.97;;
4933;SDS011;2482;49.154;8.254;2022-08-07T02:13:26;0.90;;;0.70;;
4933;SDS011;2482;49.154;8.254;2022-08-07T02:16:16;1.07;;;0.97;;
4933;SDS011;2482;49.154;8.254;2022-08-07T02:18:58;0.80;;;0.80;;
4933;SDS011;2482;49.154;8.254;2022-08-07T02:21:53;1.70;;;1.50;;
4933;SDS011;2482;49.154;8.254;2022-08-07T02:24:24;1.07;;;0.97;;
4933;SDS011;2482;49.154;8.254;2022-08-07T02:26:54;2.93;;;0.90;;
4933;SDS011;2482;49.154;8.254;2022-08-07T02:29:26;1.40;;;0.90;;
4933;SDS011;2482;49.154;8.254;2022-08-07T02:31:58;2.30;;;1.00;;
4933;SDS011;2482;49.154;8.254;2022-08-07T02:34:28;1.10;;;1.00;;
4933;SDS011;2482;49.154;8.254;2022-08-07T02:36:56;3.17;;;0.87;;
4933;SDS011;2482;49.154;8.254;2022-08-07T02:39:24;1.50;;;0.87;;
4933;SDS011;2482;49.154;8.254;2022-08-07T02:42:09;0.70;;;0.60;;
4933;SDS011;2482;49.154;8.254;2022-08-07T02:44:42;1.47;;;0.80;;
4933;SDS011;2482;49.154;8.254;2022-08-07T02:47:13;1.13;;;0.90;;
4933;SDS011;2482;49.154;8.254;2022-08-07T02:49:46;5.80;;;1.10;;
4933;SDS011;2482;49.154;8.254;2022-08-07T02:52:28;0.70;;;0.70;;
4933;SDS011;2482;49.154;8.254;2022-08-07T02:55:04;1.50;;;1.00;;
4933;SDS011;2482;49.154;8.254;2022-08-07T02:58:14;0.90;;;0.70;;
4933;SDS011;2482;49.154;8.254;2022-08-07T03:00:48;1.07;;;0.83;;
4933;SDS011;2482;49.154;8.254;2022-08-07T03:03:18;1.47;;;0.90;;
4933;SDS011;2482;49.154;8.254;2022-08-07T03:05:51;1.23;;;0.80;;
4933;SDS011;2482;49.154;8.254;2022-08-07T03:08:21;1.50;;;0.80;;
4933;SDS011;2482;49.154;8.254;2022-08-07T03:10:55;3.07;;;1.00;;
4933;SDS011;2482;49.154;8.254;2022-08-07T03:13:23;2.20;;;1.13;;
4933;SDS011;2482;49.154;8.254;2022-08-07T03:15:51;2.83;;;0.70;;
4933;SDS011;2482;49.154;8.254;2022-08-07T03:18:24;2.60;;;0.80;;
4933;SDS011;2482;49.154;8.254;2022-08-07T03:21:02;0.87;;;0.80;;
4933;SDS011;2482;49.154;8.254;2022-08-07T03:23:37;4.43;;;1.00;;
4933;SDS011;2482;49.154;8.254;2022-08-07T03:26:27;2.40;;;0.77;;
4933;SDS011;2482;49.154;8.254;2022-08-07T03:28:59;4.90;;;0.93;;
4933;SDS011;2482;49.154;8.254;2022-08-07T03:31:28;2.40;;;1.67;;
4933;SDS011;2482;49.154;8.254;2022-08-07T03:34:08;2.83;;;1.00;;
4933;SDS011;2482;49.154;8.254;2022-08-07T03:36:47;0.97;;;0.80;;
4933;SDS011;2482;49.154;8.254;2022-08-07T03:39:18;3.13;;;0.90;;
4933;SDS011;2482;49.154;8.254;2022-08-07T03:42:06;1.10;;;0.80;;
4933;SDS011;2482;49.154;8.254;2022-08-07T03:44:35;3.80;;;0.80;;
4933;SDS011;2482;49.154;8.254;2022-08-07T03:47:03;1.03;;;0.80;;
4933;SDS011;2482;49.154;8.254;2022-08-07T03:49:44;0.70;;;0.60;;
4933;SDS011;2482;49.154;8.254;2022-08-07T03:52:18;2.40;;;0.90;;
4933;SDS011;2482;49.154;8.254;2022-08-07T03:54:58;4.30;;;0.83;;
4933;SDS011;2482;49.154;8.254;2022-08-07T03:57:33;1.20;;;1.10;;
4933;SDS011;2482;49.154;8.254;2022-08-07T04:00:21;3.47;;;0.80;;
4933;SDS011;2482;49.154;8.254;2022-08-07T04:03:00;1.33;;;0.80;;
4933;SDS011;2482;49.154;8.254;2022-08-07T04:05:30;3.50;;;0.90;;
4933;SDS011;2482;49.154;8.254;2022-08-07T04:10:43;2.10;;;0.93;;
4933;SDS011;2482;49.154;8.254;2022-08-07T04:13:32;2.10;;;0.90;;
4933;SDS011;2482;49.154;8.254;2022-08-07T04:16:21;3.13;;;0.80;;
4933;SDS011;2482;49.154;8.254;2022-08-07T04:18:59;5.00;;;1.43;;
4933;SDS011;2482;49.154;8.254;2022-08-07T04:21:39;3.27;;;0.97;;
4933;SDS011;2482;49.154;8.254;2022-08-07T04:24:26;1.43;;;0.70;;
4933;SDS011;2482;49.154;8.254;2022-08-07T04:26:59;10.57;;;0.90;;
4933;SDS011;2482;49.154;8.254;2022-08-07T04:29:29;1.73;;;0.80;;
4933;SDS011;2482;49.154;8.254;2022-08-07T04:32:17;4.13;;;0.90;;
4933;SDS011;2482;49.154;8.254;2022-08-07T04:35:00;1.40;;;0.93;;
4933;SDS011;2482;49.154;8.254;2022-08-07T04:37:31;2.10;;;0.80;;
4933;SDS011;2482;49.154;8.254;2022-08-07T04:40:21;1.40;;;0.87;;
4933;SDS011;2482;49.154;8.254;2022-08-07T04:42:55;1.10;;;0.70;;
4933;SDS011;2482;49.154;8.254;2022-08-07T04:45:31;5.20;;;0.90;;
4933;SDS011;2482;49.154;8.254;2022-08-07T04:48:37;3.47;;;1.07;;
4933;SDS011;2482;49.154;8.254;2022-08-07T04:51:48;1.20;;;0.90;;
4933;SDS011;2482;49.154;8.254;2022-08-07T04:57:06;2.37;;;0.70;;
4933;SDS011;2482;49.154;8.254;2022-08-07T05:00:35;1.00;;;0.90;;
4933;SDS011;2482;49.154;8.254;2022-08-07T05:10:03;2.10;;;0.70;;
4933;SDS011;2482;49.154;8.254;2022-08-07T05:12:41;1.00;;;0.80;;
4933;SDS011;2482;49.154;8.254;2022-08-07T05:15:25;6.20;;;0.90;;
4933;SDS011;2482;49.154;8.254;2022-08-07T05:18:02;2.30;;;1.20;;
4933;SDS011;2482;49.154;8.254;2022-08-07T05:20:44;6.63;;;0.70;;
4933;SDS011;2482;49.154;8.254;2022-08-07T05:23:19;0.90;;;0.80;;
4933;SDS011;2482;49.154;8.254;2022-08-07T05:25:55;2.30;;;0.80;;
4933;SDS011;2482;49.154;8.254;2022-08-07T05:28:40;1.10;;;0.80;;
4933;SDS011;2482;49.154;8.254;2022-08-07T05:31:17;1.10;;;0.80;;
4933;SDS011;2482;49.154;8.254;2022-08-07T05:33:48;1.90;;;0.73;;
4933;SDS011;2482;49.154;8.254;2022-08-07T05:36:30;2.90;;;1.10;;
4933;SDS011;2482;49.154;8.254;2022-08-07T05:39:01;7.53;;;0.90;;
4933;SDS011;2482;49.154;8.254;2022-08-07T05:41:49;1.47;;;0.80;;
4933;SDS011;2482;49.154;8.254;2022-08-07T05:44:30;2.20;;;0.80;;
4933;SDS011;2482;49.154;8.254;2022-08-07T05:47:11;4.30;;;0.70;;
4933;SDS011;2482;49.154;8.254;2022-08-07T05:49:48;0.90;;;0.70;;
4933;SDS011;2482;49.154;8.254;2022-08-07T05:52:17;2.10;;;0.70;;
4933;SDS011;2482;49.154;8.254;2022-08-07T05:54:45;1.63;;;0.80;;
4933;SDS011;2482;49.154;8.254;2022-08-07T05:57:23;7.60;;;0.80;;
4933;SDS011;2482;49.154;8.254;2022-08-07T05:59:59;0.80;;;0.80;;
4933;SDS011;2482;49.154;8.254;2022-08-07T06:02:27;3.20;;;0.80;;
4933;SDS011;2482;49.154;8.254;2022-08-07T06:05:01;2.80;;;0.80;;
4933;SDS011;2482;49.154;8.254;2022-08-07T06:07:36;1.30;;;0.70;;
4933;SDS011;2482;49.154;8.254;2022-08-07T06:10:23;4.87;;;0.87;;
4933;SDS011;2482;49.154;8.254;2022-08-07T06:12:52;4.13;;;1.00;;
4933;SDS011;2482;49.154;8.254;2022-08-07T06:15:19;1.43;;;0.90;;
4933;SDS011;2482;49.154;8.254;2022-08-07T06:18:08;1.87;;;0.80;;
4933;SDS011;2482;49.154;8.254;2022-08-07T06:20:39;3.00;;;0.90;;
4933;SDS011;2482;49.154;8.254;2022-08-07T06:23:24;2.70;;;0.93;;
4933;SDS011;2482;49.154;8.254;2022-08-07T06:26:12;1.47;;;0.80;;
4933;SDS011;2482;49.154;8.254;2022-08-07T06:28:46;1.83;;;0.93;;
4933;SDS011;2482;49.154;8.254;2022-08-07T06:31:24;2.37;;;1.30;;
4933;SDS011;2482;49.154;8.254;2022-08-07T06:34:11;2.20;;;0.90;;
4933;SDS011;2482;49.154;8.254;2022-08-07T06:36:40;1.40;;;0.70;;
4933;SDS011;2482;49.154;8.254;2022-08-07T06:39:09;2.30;;;0.90;;
4933;SDS011;2482;49.154;8.254;2022-08-07T06:44:34;1.47;;;0.70;;
4933;SDS011;2482;49.154;8.254;2022-08-07T06:47:05;1.40;;;0.80;;
4933;SDS011;2482;49.154;8.254;2022-08-07T06:49:37;1.30;;;0.80;;
4933;SDS011;2482;49.154;8.254;2022-08-07T06:52:24;1.10;;;0.83;;
4933;SDS011;2482;49.154;8.254;2022-08-07T06:55:22;1.00;;;0.90;;
4933;SDS011;2482;49.154;8.254;2022-08-07T06:58:12;7.23;;;1.00;;
4933;SDS011;2482;49.154;8.254;2022-08-07T07:00:41;1.73;;;0.97;;
4933;SDS011;2482;49.154;8.254;2022-08-07T07:03:10;3.80;;;0.83;;
4933;SDS011;2482;49.154;8.254;2022-08-07T07:05:42;1.10;;;0.83;;
4933;SDS011;2482;49.154;8.254;2022-08-07T07:08:30;4.20;;;1.63;;
4933;SDS011;2482;49.154;8.254;2022-08-07T07:10:58;3.63;;;0.90;;
4933;SDS011;2482;49.154;8.254;2022-08-07T07:13:48;2.30;;;0.87;;
4933;SDS011;2482;49.154;8.254;2022-08-07T07:16:26;5.27;;;1.13;;
4933;SDS011;2482;49.154;8.254;2022-08-07T07:19:20;3.93;;;0.90;;
4933;SDS011;2482;49.154;8.254;2022-08-07T07:22:14;1.90;;;1.03;;
4933;SDS011;2482;49.154;8.254;2022-08-07T07:25:02;1.60;;;0.80;;
4933;SDS011;2482;49.154;8.254;2022-08-07T07:28:36;0.90;;;0.90;;
4933;SDS011;2482;49.154;8.254;2022-08-07T07:31:10;1.83;;;1.00;;
4933;SDS011;2482;49.154;8.254;2022-08-07T07:33:47;2.10;;;1.20;;
4933;SDS011;2482;49.154;8.254;2022-08-07T07:36:22;2.07;;;1.13;;
4933;SDS011;2482;49.154;8.254;2022-08-07T07:38:58;2.67;;;1.20;;
4933;SDS011;2482;49.154;8.254;2022-08-07T07:41:28;2.00;;;1.37;;
4933;SDS011;2482;49.154;8.254;2022-08-07T07:44:18;1.83;;;1.10;;
4933;SDS011;2482;49.154;8.254;2022-08-07T07:46:52;1.43;;;1.33;;
4933;SDS011;2482;49.154;8.254;2022-08-07T07:49:41;2.33;;;1.70;;
4933;SDS011;2482;49.154;8.254;2022-08-07T07:52:30;2.83;;;1.37;;
4933;SDS011;2482;49.154;8.254;2022-08-07T07:54:58;1.20;;;1.10;;
4933;SDS011;2482;49.154;8.254;2022-08-07T07:57:28;2.03;;;1.40;;
4933;SDS011;2482;49.154;8.254;2022-08-07T08:00:16;2.40;;;1.60;;
4933;SDS011;2482;49.154;8.254;2022-08-07T08:03:04;2.00;;;1.43;;
4933;SDS011;2482;49.154;8.254;2022-08-07T08:05:55;2.60;;;1.40;;
4933;SDS011;2482;49.154;8.254;2022-08-07T08:08:23;1.90;;;1.33;;
4933;SDS011;2482;49.154;8.254;2022-08-07T08:11:01;2.30;;;1.20;;
4933;SDS011;2482;49.154;8.254;2022-08-07T08:13:30;2.70;;;1.57;;
4933;SDS011;2482;49.154;8.254;2022-08-07T08:16:22;2.20;;;1.47;;
4933;SDS011;2482;49.154;8.254;2022-08-07T08:18:56;2.20;;;1.40;;
4933;SDS011;2482;49.154;8.254;2022-08-07T08:21:36;1.10;;;1.00;;
4933;SDS011;2482;49.154;8.254;2022-08-07T08:24:30;5.50;;;1.30;;
4933;SDS011;2482;49.154;8.254;2022-08-07T08:27:41;1.73;;;1.13;;
4933;SDS011;2482;49.154;8.254;2022-08-07T08:30:23;2.53;;;1.40;;
4933;SDS011;2482;49.154;8.254;2022-08-07T08:32:53;2.50;;;1.27;;
4933;SDS011;2482;49.154;8.254;2022-08-07T08:35:27;1.67;;;1.33;;
4933;SDS011;2482;49.154;8.254;2022-08-07T08:38:12;1.40;;;1.20;;
4933;SDS011;2482;49.154;8.254;2022-08-07T08:41:02;4.27;;;1.67;;
4933;SDS011;2482;49.154;8.254;2022-08-07T08:43:41;3.60;;;1.77;;
4933;SDS011;2482;49.154;8.254;2022-08-07T08:49:17;1.50;;;1.23;;
4933;SDS011;2482;49.154;8.254;2022-08-07T08:52:37;1.60;;;1.50;;
4933;SDS011;2482;49.154;8.254;2022-08-07T08:58:28;1.53;;;1.43;;
4933;SDS011;2482;49.154;8.254;2022-08-07T09:01:30;1.40;;;1.30;;
4933;SDS011;2482;49.154;8.254;2022-08-07T09:04:26;4.13;;;1.47;;
4933;SDS011;2482;49.154;8.254;2022-08-07T09:07:23;1.20;;;1.10;;
4933;SDS011;2482;49.154;8.254;2022-08-07T09:10:39;3.80;;;1.50;;
4933;SDS011;2482;49.154;8.254;2022-08-07T09:16:09;3.93;;;1.80;;
4933;SDS011;2482;49.154;8.254;2022-08-07T09:19:16;2.50;;;1.30;;
4933;SDS011;2482;49.154;8.254;2022-08-07T09:28:39;1.80;;;1.33;;
4933;SDS011;2482;49.154;8.254;2022-08-07T09:31:41;1.90;;;1.37;;
4933;SDS011;2482;49.154;8.254;2022-08-07T09:34:24;6.47;;;1.53;;
4933;SDS011;2482;49.154;8.254;2022-08-07T09:37:10;3.47;;;1.83;;
4933;SDS011;2482;49.154;8.254;2022-08-07T09:45:26;3.80;;;1.70;;
4933;SDS011;2482;49.154;8.254;2022-08-07T09:54:46;2.63;;;1.57;;
4933;SDS011;2482;49.154;8.254;2022-08-07T10:04:48;3.17;;;1.60;;
4933;SDS011;2482;49.154;8.254;2022-08-07T10:07:47;1.50;;;1.40;;
4933;SDS011;2482;49.154;8.254;2022-08-07T10:10:34;3.27;;;1.80;;
4933;SDS011;2482;49.154;8.254;2022-08-07T10:13:32;2.83;;;1.27;;
4933;SDS011;2482;49.154;8.254;2022-08-07T10:19:34;1.80;;;1.40;;
4933;SDS011;2482;49.154;8.254;2022-08-07T10:31:25;5.53;;;1.30;;
4933;SDS011;2482;49.154;8.254;2022-08-07T10:40:26;3.17;;;1.00;;
4933;SDS011;2482;49.154;8.254;2022-08-07T10:43:37;1.20;;;1.00;;
4933;SDS011;2482;49.154;8.254;2022-08-07T10:46:01;2.97;;;0.87;;
4933;SDS011;2482;49.154;8.254;2022-08-07T10:48:46;0.73;;;0.67;;
4933;SDS011;2482;49.154;8.254;2022-08-07T10:52:14;1.83;;;0.90;;
4933;SDS011;2482;49.154;8.254;2022-08-07T10:55:02;1.63;;;0.80;;
4933;SDS011;2482;49.154;8.254;2022-08-07T11:11:00;0.73;;;0.70;;
4933;SDS011;2482;49.154;8.254;2022-08-07T11:16:49;1.43;;;0.60;;
4933;SDS011;2482;49.154;8.254;2022-08-07T11:25:22;4.13;;;0.80;;
4933;SDS011;2482;49.154;8.254;2022-08-07T11:31:21;1.30;;;0.60;;
4933;SDS011;2482;49.154;8.254;2022-08-07T11:34:45;3.30;;;0.70;;
4933;SDS011;2482;49.154;8.254;2022-08-07T11:43:33;2.20;;;0.70;;
4933;SDS011;2482;49.154;8.254;2022-08-07T11:55:48;2.63;;;0.60;;
4933;SDS011;2482;49.154;8.254;2022-08-07T12:08:22;0.67;;;0.67;;
4933;SDS011;2482;49.154;8.254;2022-08-07T12:13:52;0.70;;;0.60;;
4933;SDS011;2482;49.154;8.254;2022-08-07T12:16:36;0.80;;;0.60;;
4933;SDS011;2482;49.154;8.254;2022-08-07T12:22:44;2.93;;;0.80;;
4933;SDS011;2482;49.154;8.254;2022-08-07T12:25:35;2.33;;;0.70;;
4933;SDS011;2482;49.154;8.254;2022-08-07T12:28:48;0.80;;;0.50;;
4933;SDS011;2482;49.154;8.254;2022-08-07T12:31:26;2.53;;;0.73;;
4933;SDS011;2482;49.154;8.254;2022-08-07T12:34:28;1.00;;;0.50;;
4933;SDS011;2482;49.154;8.254;2022-08-07T12:36:58;12.97;;;0.90;;
4933;SDS011;2482;49.154;8.254;2022-08-07T12:39:34;0.90;;;0.50;;
4933;SDS011;2482;49.154;8.254;2022-08-07T12:42:17;1.77;;;0.70;;
4933;SDS011;2482;49.154;8.254;2022-08-07T12:44:54;2.37;;;0.60;;
4933;SDS011;2482;49.154;8.254;2022-08-07T12:47:31;0.70;;;0.50;;
4933;SDS011;2482;49.154;8.254;2022-08-07T12:50:19;1.57;;;0.70;;
4933;SDS011;2482;49.154;8.254;2022-08-07T12:53:22;4.90;;;0.63;;
4933;SDS011;2482;49.154;8.254;2022-08-07T12:56:31;1.00;;;0.70;;
4933;SDS011;2482;49.154;8.254;2022-08-07T12:59:17;2.47;;;0.80;;
4933;SDS011;2482;49.154;8.254;2022-08-07T13:04:47;1.17;;;0.67;;
4933;SDS011;2482;49.154;8.254;2022-08-07T13:17:26;0.80;;;0.60;;
4933;SDS011;2482;49.154;8.254;2022-08-07T13:20:14;0.80;;;0.57;;
4933;SDS011;2482;49.154;8.254;2022-08-07T13:22:59;0.87;;;0.57;;
4933;SDS011;2482;49.154;8.254;2022-08-07T13:26:02;0.70;;;0.60;;
4933;SDS011;2482;49.154;8.254;2022-08-07T13:28:54;0.90;;;0.70;;
4933;SDS011;2482;49.154;8.254;2022-08-07T13:31:52;1.13;;;0.60;;
4933;SDS011;2482;49.154;8.254;2022-08-07T13:38:33;1.70;;;0.60;;
4933;SDS011;2482;49.154;8.254;2022-08-07T13:41:39;0.80;;;0.53;;
4933;SDS011;2482;49.154;8.254;2022-08-07T13:44:23;1.10;;;0.70;;
4933;SDS011;2482;49.154;8.254;2022-08-07T13:47:02;1.20;;;0.80;;
4933;SDS011;2482;49.154;8.254;2022-08-07T13:49:37;0.73;;;0.60;;
4933;SDS011;2482;49.154;8.254;2022-08-07T13:52:29;1.20;;;0.80;;
4933;SDS011;2482;49.154;8.254;2022-08-07T13:55:16;6.80;;;0.80;;
4933;SDS011;2482;49.154;8.254;2022-08-07T13:57:57;1.07;;;0.53;;
4933;SDS011;2482;49.154;8.254;2022-08-07T14:01:06;0.70;;;0.60;;
4933;SDS011;2482;49.154;8.254;2022-08-07T14:03:47;1.47;;;0.60;;
4933;SDS011;2482;49.154;8.254;2022-08-07T14:06:34;1.57;;;0.70;;
4933;SDS011;2482;49.154;8.254;2022-08-07T14:09:04;0.97;;;0.60;;
4933;SDS011;2482;49.154;8.254;2022-08-07T14:11:46;0.73;;;0.70;;
4933;SDS011;2482;49.154;8.254;2022-08-07T14:14:30;0.93;;;0.60;;
4933;SDS011;2482;49.154;8.254;2022-08-07T14:17:13;2.27;;;0.80;;
4933;SDS011;2482;49.154;8.254;2022-08-07T14:20:23;0.60;;;0.50;;
4933;SDS011;2482;49.154;8.254;2022-08-07T14:26:12;2.37;;;0.50;;
4933;SDS011;2482;49.154;8.254;2022-08-07T14:28:57;2.73;;;0.70;;
4933;SDS011;2482;49.154;8.254;2022-08-07T14:31:49;1.47;;;0.50;;
4933;SDS011;2482;49.154;8.254;2022-08-07T14:34:23;1.00;;;0.70;;
4933;SDS011;2482;49.154;8.254;2022-08-07T14:36:56;0.90;;;0.70;;
4933;SDS011;2482;49.154;8.254;2022-08-07T14:39:30;1.10;;;0.60;;
4933;SDS011;2482;49.154;8.254;2022-08-07T14:42:22;1.07;;;0.60;;
4933;SDS011;2482;49.154;8.254;2022-08-07T14:44:58;1.73;;;0.70;;
4933;SDS011;2482;49.154;8.254;2022-08-07T14:47:47;0.50;;;0.50;;
4933;SDS011;2482;49.154;8.254;2022-08-07T14:50:24;1.87;;;0.70;;
4933;SDS011;2482;49.154;8.254;2022-08-07T14:53:02;1.00;;;0.60;;
4933;SDS011;2482;49.154;8.254;2022-08-07T14:55:35;2.50;;;0.60;;
4933;SDS011;2482;49.154;8.254;2022-08-07T14:58:30;1.27;;;0.80;;
4933;SDS011;2482;49.154;8.254;2022-08-07T15:01:10;1.67;;;0.83;;
4933;SDS011;2482;49.154;8.254;2022-08-07T15:03:48;1.13;;;0.60;;
4933;SDS011;2482;49.154;8.254;2022-08-07T15:06:22;1.47;;;0.70;;
4933;SDS011;2482;49.154;8.254;2022-08-07T15:08:51;1.33;;;0.80;;
4933;SDS011;2482;49.154;8.254;2022-08-07T15:11:24;4.30;;;0.63;;
4933;SDS011;2482;49.154;8.254;2022-08-07T15:14:16;1.27;;;0.70;;
4933;SDS011;2482;49.154;8.254;2022-08-07T15:16:57;0.90;;;0.80;;
4933;SDS011;2482;49.154;8.254;2022-08-07T15:19:30;0.90;;;0.50;;
4933;SDS011;2482;49.154;8.254;2022-08-07T15:22:25;1.07;;;0.70;;
4933;SDS011;2482;49.154;8.254;2022-08-07T15:25:04;2.23;;;1.00;;
4933;SDS011;2482;49.154;8.254;2022-08-07T15:27:44;1.00;;;0.60;;
4933;SDS011;2482;49.154;8.254;2022-08-07T15:30:37;0.97;;;0.70;;
4933;SDS011;2482;49.154;8.254;2022-08-07T15:33:24;1.33;;;0.60;;
4933;SDS011;2482;49.154;8.254;2022-08-07T15:36:01;0.90;;;0.70;;
4933;SDS011;2482;49.154;8.254;2022-08-07T15:38:33;2.60;;;0.70;;
4933;SDS011;2482;49.154;8.254;2022-08-07T15:41:24;2.30;;;0.60;;
4933;SDS011;2482;49.154;8.254;2022-08-07T15:44:16;1.43;;;0.80;;
4933;SDS011;2482;49.154;8.254;2022-08-07T15:47:00;0.90;;;0.60;;
4933;SDS011;2482;49.154;8.254;2022-08-07T15:49:42;1.77;;;0.70;;
4933;SDS011;2482;49.154;8.254;2022-08-07T15:52:32;5.80;;;0.60;;
4933;SDS011;2482;49.154;8.254;2022-08-07T15:55:03;1.00;;;0.70;;
4933;SDS011;2482;49.154;8.254;2022-08-07T15:57:37;1.67;;;0.60;;
4933;SDS011;2482;49.154;8.254;2022-08-07T16:00:14;2.30;;;0.70;;
4933;SDS011;2482;49.154;8.254;2022-08-07T16:03:03;0.80;;;0.70;;
4933;SDS011;2482;49.154;8.254;2022-08-07T16:06:02;5.63;;;0.67;;
4933;SDS011;2482;49.154;8.254;2022-08-07T16:08:31;0.70;;;0.60;;
4933;SDS011;2482;49.154;8.254;2022-08-07T16:11:05;0.60;;;0.50;;
4933;SDS011;2482;49.154;8.254;2022-08-07T16:14:04;1.90;;;0.60;;
4933;SDS011;2482;49.154;8.254;2022-08-07T16:28:56;2.20;;;0.70;;
4933;SDS011;2482;49.154;8.254;2022-08-07T16:35:46;2.70;;;0.60;;
4933;SDS011;2482;49.154;8.254;2022-08-07T16:48:08;1.43;;;0.70;;
4933;SDS011;2482;49.154;8.254;2022-08-07T16:54:53;3.27;;;0.70;;
4933;SDS011;2482;49.154;8.254;2022-08-07T16:57:44;3.33;;;0.80;;
4933;SDS011;2482;49.154;8.254;2022-08-07T17:04:09;3.53;;;0.60;;
4933;SDS011;2482;49.154;8.254;2022-08-07T17:07:17;1.13;;;0.60;;
4933;SDS011;2482;49.154;8.254;2022-08-07T17:13:30;2.27;;;0.70;;
4933;SDS011;2482;49.154;8.254;2022-08-07T17:16:26;0.50;;;0.50;;
4933;SDS011;2482;49.154;8.254;2022-08-07T17:22:29;0.80;;;0.60;;
4933;SDS011;2482;49.154;8.254;2022-08-07T17:25:15;1.10;;;0.60;;
4933;SDS011;2482;49.154;8.254;2022-08-07T17:28:13;2.93;;;0.80;;
4933;SDS011;2482;49.154;8.254;2022-08-07T17:30:50;1.07;;;0.60;;
4933;SDS011;2482;49.154;8.254;2022-08-07T17:33:46;1.17;;;0.67;;
4933;SDS011;2482;49.154;8.254;2022-08-07T17:36:41;2.10;;;1.00;;
4933;SDS011;2482;49.154;8.254;2022-08-07T17:39:48;1.43;;;0.70;;
4933;SDS011;2482;49.154;8.254;2022-08-07T17:42:49;3.00;;;0.73;;
4933;SDS011;2482;49.154;8.254;2022-08-07T17:46:12;0.70;;;0.60;;
4933;SDS011;2482;49.154;8.254;2022-08-07T17:51:08;0.90;;;0.50;;
4933;SDS011;2482;49.154;8.254;2022-08-07T17:53:56;2.60;;;0.80;;
4933;SDS011;2482;49.154;8.254;2022-08-07T17:56:39;2.03;;;0.70;;
4933;SDS011;2482;49.154;8.254;2022-08-07T18:02:14;1.77;;;0.63;;
4933;SDS011;2482;49.154;8.254;2022-08-07T18:05:05;2.77;;;0.60;;
4933;SDS011;2482;49.154;8.254;2022-08-07T18:08:26;1.33;;;0.63;;
4933;SDS011;2482;49.154;8.254;2022-08-07T18:17:09;4.20;;;0.60;;
4933;SDS011;2482;49.154;8.254;2022-08-07T18:20:38;1.20;;;0.70;;
4933;SDS011;2482;49.154;8.254;2022-08-07T18:23:37;1.80;;;0.70;;
4933;SDS011;2482;49.154;8.254;2022-08-07T18:26:23;5.63;;;0.70;;
4933;SDS011;2482;49.154;8.254;2022-08-07T18:29:08;0.80;;;0.60;;
4933;SDS011;2482;49.154;8.254;2022-08-07T18:38:20;0.97;;;0.80;;
4933;SDS011;2482;49.154;8.254;2022-08-07T18:41:37;1.83;;;0.90;;
4933;SDS011;2482;49.154;8.254;2022-08-07T18:44:35;4.10;;;0.70;;
4933;SDS011;2482;49.154;8.254;2022-08-07T18:50:33;2.80;;;0.77;;
4933;SDS011;2482;49.154;8.254;2022-08-07T18:53:20;3.07;;;0.70;;
4933;SDS011;2482;49.154;8.254;2022-08-07T19:05:26;4.07;;;0.90;;
4933;SDS011;2482;49.154;8.254;2022-08-07T19:11:05;0.83;;;0.60;;
4933;SDS011;2482;49.154;8.254;2022-08-07T19:16:54;3.30;;;0.83;;
4933;SDS011;2482;49.154;8.254;2022-08-07T19:26:11;3.00;;;1.00;;
4933;SDS011;2482;49.154;8.254;2022-08-07T19:28:58;1.60;;;0.80;;
4933;SDS011;2482;49.154;8.254;2022-08-07T19:31:50;4.70;;;1.10;;
4933;SDS011;2482;49.154;8.254;2022-08-07T19:34:39;2.50;;;1.00;;
4933;SDS011;2482;49.154;8.254;2022-08-07T19:37:13;1.50;;;0.80;;
4933;SDS011;2482;49.154;8.254;2022-08-07T19:39:50;0.87;;;0.70;;
4933;SDS011;2482;49.154;8.254;2022-08-07T19:42:30;2.30;;;0.90;;
4933;SDS011;2482;49.154;8.254;2022-08-07T19:45:11;2.87;;;0.70;;
4933;SDS011;2482;49.154;8.254;2022-08-07T19:48:08;1.27;;;0.70;;
4933;SDS011;2482;49.154;8.254;2022-08-07T19:50:49;1.13;;;0.80;;
4933;SDS011;2482;49.154;8.254;2022-08-07T19:53:19;0.87;;;0.70;;
4933;SDS011;2482;49.154;8.254;2022-08-07T19:56:08;3.10;;;0.77;;
4933;SDS011;2482;49.154;8.254;2022-08-07T19:58:56;4.17;;;0.97;;
4933;SDS011;2482;49.154;8.254;2022-08-07T20:01:24;1.43;;;0.73;;
4933;SDS011;2482;49.154;8.254;2022-08-07T20:04:14;1.33;;;0.70;;
4933;SDS011;2482;49.154;8.254;2022-08-07T20:07:03;1.63;;;0.80;;
4933;SDS011;2482;49.154;8.254;2022-08-07T20:09:39;3.03;;;0.83;;
4933;SDS011;2482;49.154;8.254;2022-08-07T20:12:29;1.00;;;0.83;;
4933;SDS011;2482;49.154;8.254;2022-08-07T20:15:00;3.40;;;1.10;;
4933;SDS011;2482;49.154;8.254;2022-08-07T20:17:44;2.80;;;0.80;;
4933;SDS011;2482;49.154;8.254;2022-08-07T20:20:28;2.53;;;0.70;;
4933;SDS011;2482;49.154;8.254;2022-08-07T20:23:02;6.83;;;1.07;;
4933;SDS011;2482;49.154;8.254;2022-08-07T20:25:54;1.70;;;0.73;;
4933;SDS011;2482;49.154;8.254;2022-08-07T20:28:22;2.53;;;0.90;;
4933;SDS011;2482;49.154;8.254;2022-08-07T20:30:56;1.30;;;1.00;;
4933;SDS011;2482;49.154;8.254;2022-08-07T20:33:26;2.40;;;1.00;;
4933;SDS011;2482;49.154;8.254;2022-08-07T20:36:03;2.70;;;1.00;;
4933;SDS011;2482;49.154;8.254;2022-08-07T20:38:33;2.60;;;0.80;;
4933;SDS011;2482;49.154;8.254;2022-08-07T20:41:24;3.37;;;0.70;;
4933;SDS011;2482;49.154;8.254;2022-08-07T20:44:03;10.43;;;1.40;;